Decoded Metar for UKOO (ODESSA in UKRAINE) (IATA:ODS) | Meteo·Mobile Aviation Weather
aviador You're here:

UKOO Decoded Metar

ODESSA in UKRAINE
Report Time2019-09-23 09:00:00
UTC Time2019-09-23 09:21:32
Flight Rules vfr VFR
Wind250° at 8 kt
W.Decomp.*RWY 16: 0.6 kt HW 8.0 kt RCW
Visibility9999 m
Phenomena:N/A
Clouds:N/A
Expected CloudBase > 8,800 ft AGL from Temp-Dew spread
CeilingNone
Temp24°C (ISA +9)
Dew Point02°C (24% RH)
AAT19.5°C
QNH1016 hPa
Density Alt1,184 ft
Elevation115 ft
Report Wrong Elevation
Raw Report
METAR UKOO 230900Z 25004MPS 200V300 CAVOK 24/02 Q1016 R16/090060 NOSIG=

Extra information for UKOO:More info

Metar Taf Metar & Taf Last 4 Metars F.Rules Stats Wind Profile Meteogram Temp Stats Airport Information Weather charts Add Link Nearby VenuesMetar ALERT Operation Metar Decoded Social comments